Terminal Aerodrome Forecast
Issued by NWS

Home | Current Version | Previous Version | Graphics & Text | Print | Product List | Glossary On
Versions: 1 2 3 4 5 6 7 8 9 10 11 12 13
000
FTUS41 KCLE 241138
TAFFDY
TAF
KFDY 241138Z 2412/2512 29006KT P6SM SCT015 BKN090
      TEMPO 2413/2415 BKN015
     FM241500 31008KT P6SM BKN018
     FM241800 33010KT P6SM BKN035
     FM250100 36005KT P6SM SCT035=

USA.gov is the U.S. government's official web portal to all federal, state and local government web resources and services.